createdAt,value
2022-12-23T00:01:46.558Z,61.90
2022-12-23T00:04:13.286Z,62.40
2022-12-23T00:06:39.974Z,61.90
2022-12-23T00:09:06.574Z,62.40
2022-12-23T00:11:33.166Z,62.10
2022-12-23T00:14:21.647Z,62.20
2022-12-23T00:16:49.916Z,61.90
2022-12-23T00:19:16.542Z,61.90
2022-12-23T00:21:43.171Z,61.80
2022-12-23T00:24:11.331Z,61.80
2022-12-23T00:26:38.353Z,62.70
2022-12-23T00:29:04.947Z,62.20
2022-12-23T00:31:31.627Z,62.00
2022-12-23T00:33:58.345Z,62.10
2022-12-23T00:36:29.018Z,61.90
2022-12-23T00:39:14.751Z,61.90
2022-12-23T00:41:59.996Z,62.10
2022-12-23T00:44:26.629Z,62.90
2022-12-23T00:46:53.230Z,63.00
2022-12-23T00:49:38.583Z,62.70
2022-12-23T00:52:06.028Z,62.10
2022-12-23T00:54:32.595Z,62.20
2022-12-23T00:56:59.736Z,63.00
2022-12-23T00:59:26.697Z,62.80
2022-12-23T01:02:12.241Z,62.30
2022-12-23T01:04:57.447Z,62.30
2022-12-23T01:07:24.427Z,63.20
2022-12-23T01:09:51.050Z,62.00
2022-12-23T01:12:17.912Z,62.10
2022-12-23T01:14:44.750Z,62.10
2022-12-23T01:17:11.658Z,62.60
2022-12-23T01:19:38.361Z,62.50
2022-12-23T01:22:04.997Z,61.90
2022-12-23T01:24:31.926Z,61.40
2022-12-23T01:26:58.859Z,61.30
2022-12-23T01:29:26.165Z,61.00
2022-12-23T01:31:52.784Z,60.80
2022-12-23T01:34:19.506Z,61.40
2022-12-23T01:36:46.184Z,60.80
2022-12-23T01:39:12.786Z,60.50
2022-12-23T01:41:58.241Z,60.50
2022-12-23T01:44:43.427Z,60.80
2022-12-23T01:47:12.836Z,60.80
2022-12-23T01:49:40.162Z,61.20
2022-12-23T01:52:06.788Z,61.40
2022-12-23T01:54:33.683Z,61.70
2022-12-23T01:57:00.310Z,61.50
2022-12-23T01:59:45.642Z,62.30
2022-12-23T02:02:50.728Z,62.70
2022-12-23T02:05:17.522Z,62.00
2022-12-23T02:08:02.875Z,62.20
2022-12-23T02:10:34.117Z,62.00
2022-12-23T02:13:06.668Z,62.10
2022-12-23T02:15:52.083Z,62.70
2022-12-23T02:18:37.429Z,62.10
2022-12-23T02:21:33.574Z,62.10
2022-12-23T02:24:02.966Z,62.00
2022-12-23T02:26:48.388Z,62.10
2022-12-23T02:29:35.735Z,62.20
2022-12-23T02:32:21.132Z,62.30
2022-12-23T02:34:52.294Z,62.30
2022-12-23T02:37:21.257Z,62.40
2022-12-23T02:39:47.807Z,62.30
2022-12-23T02:42:20.443Z,62.90
2022-12-23T02:44:59.892Z,62.30
2022-12-23T02:47:33.071Z,62.20
2022-12-23T02:50:01.771Z,62.20
2022-12-23T02:52:32.543Z,62.00
2022-12-23T02:55:01.770Z,62.10
2022-12-23T02:57:32.152Z,62.10
2022-12-23T02:59:59.918Z,62.10
2022-12-23T03:02:26.641Z,62.10
2022-12-23T03:04:53.254Z,62.10
2022-12-23T03:07:30.533Z,62.10
2022-12-23T03:09:57.926Z,62.20
2022-12-23T03:12:37.239Z,62.10
2022-12-23T03:15:09.833Z,62.10
2022-12-23T03:17:44.538Z,62.10
2022-12-23T03:20:21.041Z,62.80
2022-12-23T03:22:54.612Z,62.40
2022-12-23T03:25:26.719Z,62.20
2022-12-23T03:28:00.135Z,61.90
2022-12-23T03:30:27.141Z,61.60
2022-12-23T03:32:55.727Z,61.90
2022-12-23T03:35:30.899Z,61.50
2022-12-23T03:37:58.036Z,61.30
2022-12-23T03:40:24.575Z,61.10
2022-12-23T03:42:54.866Z,61.40
2022-12-23T03:45:40.669Z,61.10
2022-12-23T03:48:18.378Z,60.90
2022-12-23T03:50:46.288Z,61.30
2022-12-23T03:53:18.636Z,61.00
2022-12-23T03:55:47.934Z,61.20
2022-12-23T03:58:19.973Z,61.10
2022-12-23T04:01:19.324Z,61.00
2022-12-23T04:03:56.196Z,60.90
2022-12-23T04:06:24.197Z,60.90
2022-12-23T04:08:50.957Z,61.20
2022-12-23T04:11:17.588Z,60.90
2022-12-23T04:13:46.543Z,60.90
2022-12-23T04:16:13.203Z,60.90
2022-12-23T04:18:39.900Z,60.60
2022-12-23T04:21:06.481Z,60.40
2022-12-23T04:23:33.106Z,61.30
2022-12-23T04:25:59.655Z,61.00
2022-12-23T04:28:26.245Z,60.70
2022-12-23T04:30:52.825Z,60.40
2022-12-23T04:33:19.412Z,60.60
2022-12-23T04:35:45.972Z,60.90
2022-12-23T04:38:12.610Z,61.30
2022-12-23T04:40:39.162Z,60.90
2022-12-23T04:43:05.719Z,60.50
2022-12-23T04:45:32.704Z,60.60
2022-12-23T04:47:59.370Z,60.60
2022-12-23T04:50:25.938Z,61.20
2022-12-23T04:52:52.504Z,61.90
2022-12-23T04:55:19.265Z,60.50
2022-12-23T04:57:45.942Z,60.70
2022-12-23T05:00:12.739Z,60.40
2022-12-23T05:02:39.515Z,61.00
2022-12-23T05:05:06.259Z,61.30
2022-12-23T05:07:32.832Z,60.90
2022-12-23T05:10:01.813Z,60.90
2022-12-23T05:12:29.827Z,60.90
2022-12-23T05:14:56.667Z,60.70
2022-12-23T05:17:23.411Z,61.40
2022-12-23T05:19:49.985Z,61.30
2022-12-23T05:22:16.662Z,60.70
2022-12-23T05:24:43.309Z,60.50
2022-12-23T05:27:09.880Z,61.10
2022-12-23T05:29:36.477Z,61.10
2022-12-23T05:32:03.258Z,61.20
2022-12-23T05:34:30.094Z,61.00
2022-12-23T05:36:56.830Z,60.30
2022-12-23T05:39:23.432Z,61.00
2022-12-23T05:41:50.084Z,61.90
2022-12-23T05:44:16.647Z,61.40
2022-12-23T05:46:43.382Z,61.00
2022-12-23T05:49:10.089Z,60.90
2022-12-23T05:51:36.731Z,60.90
2022-12-23T05:54:03.367Z,60.90
2022-12-23T05:56:29.924Z,61.50
2022-12-23T05:58:56.630Z,60.90
2022-12-23T06:01:23.264Z,61.10
2022-12-23T06:03:49.961Z,60.90
2022-12-23T06:06:16.811Z,60.70
2022-12-23T06:08:43.440Z,61.30
2022-12-23T06:11:10.105Z,60.90
2022-12-23T06:13:36.675Z,60.80
2022-12-23T06:16:03.364Z,61.00
2022-12-23T06:18:30.117Z,61.00
2022-12-23T06:20:56.677Z,61.30
2022-12-23T06:23:23.249Z,61.10
2022-12-23T06:25:50.036Z,61.20
2022-12-23T06:28:16.579Z,60.90
2022-12-23T06:30:43.134Z,61.10
2022-12-23T06:33:09.705Z,61.20
2022-12-23T06:35:36.287Z,61.20
2022-12-23T06:38:04.664Z,62.10
2022-12-23T06:40:34.159Z,61.30
2022-12-23T06:43:00.781Z,61.30
2022-12-23T06:45:27.394Z,61.30
2022-12-23T06:47:54.024Z,61.00
2022-12-23T06:50:20.660Z,61.30
2022-12-23T06:52:47.305Z,62.30
2022-12-23T06:55:13.939Z,61.10
2022-12-23T06:57:40.589Z,61.20
2022-12-23T07:00:08.088Z,61.10
2022-12-23T07:02:34.912Z,61.30
2022-12-23T07:05:01.677Z,61.50
2022-12-23T07:07:28.256Z,61.60
2022-12-23T07:09:54.849Z,61.50
2022-12-23T07:12:21.466Z,61.00
2022-12-23T07:14:48.061Z,61.80
2022-12-23T07:17:14.612Z,61.50
2022-12-23T07:19:41.738Z,61.50
2022-12-23T07:22:10.266Z,61.30
2022-12-23T07:24:37.475Z,61.80
2022-12-23T07:27:04.221Z,62.40
2022-12-23T07:29:30.773Z,61.30
2022-12-23T07:31:57.454Z,61.30
2022-12-23T07:34:24.094Z,60.90
2022-12-23T07:36:50.667Z,62.00
2022-12-23T07:39:17.248Z,61.40
2022-12-23T07:41:43.840Z,61.50
2022-12-23T07:44:10.417Z,61.70
2022-12-23T07:46:37.124Z,61.30
2022-12-23T07:49:03.802Z,61.10
2022-12-23T07:51:30.841Z,60.70
2022-12-23T07:53:57.434Z,61.30
2022-12-23T07:56:24.095Z,61.50
2022-12-23T07:58:51.827Z,61.50
2022-12-23T08:01:19.173Z,61.00
2022-12-23T08:03:46.371Z,61.50
2022-12-23T08:06:14.193Z,62.00
2022-12-23T08:08:41.707Z,61.70
2022-12-23T08:11:09.665Z,61.80
2022-12-23T08:13:37.349Z,61.10
2022-12-23T08:16:04.651Z,61.60
2022-12-23T08:18:32.393Z,61.50
2022-12-23T08:21:00.200Z,61.90
2022-12-23T08:23:27.457Z,62.10
2022-12-23T08:26:06.441Z,61.50
2022-12-23T08:28:33.451Z,61.80
2022-12-23T08:31:23.357Z,62.00
2022-12-23T08:33:51.799Z,61.60
2022-12-23T08:36:23.013Z,61.90
2022-12-23T08:38:53.016Z,62.00
2022-12-23T08:41:21.103Z,61.80
2022-12-23T08:43:47.722Z,62.40
2022-12-23T08:46:14.336Z,61.70
2022-12-23T08:48:46.993Z,61.90
2022-12-23T08:51:19.545Z,62.00
2022-12-23T08:53:46.626Z,62.30
2022-12-23T08:56:14.725Z,62.40
2022-12-23T08:58:42.957Z,61.70
2022-12-23T09:01:10.549Z,62.10
2022-12-23T09:03:37.410Z,62.20
2022-12-23T09:06:05.762Z,62.20
2022-12-23T09:08:32.338Z,62.20
2022-12-23T09:10:58.940Z,61.90
2022-12-23T09:13:32.992Z,62.10
2022-12-23T09:16:01.771Z,62.20
2022-12-23T09:18:28.383Z,62.50
2022-12-23T09:20:59.129Z,62.30
2022-12-23T09:23:25.831Z,61.70
2022-12-23T09:25:53.138Z,61.00
2022-12-23T09:28:19.741Z,61.70
2022-12-23T09:30:46.477Z,61.20
2022-12-23T09:33:13.063Z,61.90
2022-12-23T09:35:39.736Z,61.90
2022-12-23T09:38:06.849Z,61.70
2022-12-23T09:40:35.239Z,61.50
2022-12-23T09:43:20.673Z,61.60
2022-12-23T09:46:07.404Z,61.50
2022-12-23T09:48:45.534Z,61.00
2022-12-23T09:51:12.699Z,61.70
2022-12-23T09:53:46.103Z,61.70
2022-12-23T09:56:28.778Z,61.70
2022-12-23T09:58:58.258Z,61.80
2022-12-23T10:01:31.245Z,61.10
2022-12-23T10:04:16.437Z,61.70
2022-12-23T10:06:45.713Z,61.70
2022-12-23T10:09:13.846Z,61.70
2022-12-23T10:11:42.632Z,61.30
2022-12-23T10:14:12.195Z,61.70
2022-12-23T10:16:41.211Z,61.80
2022-12-23T10:19:31.062Z,61.90
2022-12-23T10:22:10.353Z,62.00
2022-12-23T10:24:39.710Z,61.80
2022-12-23T10:27:15.315Z,62.70
2022-12-23T10:29:42.278Z,62.20
2022-12-23T10:32:14.762Z,62.20
2022-12-23T10:35:00.194Z,61.90
2022-12-23T10:37:39.012Z,62.00
2022-12-23T10:40:17.776Z,61.90
2022-12-23T10:42:50.293Z,62.10
2022-12-23T10:45:16.957Z,62.20
2022-12-23T10:47:51.708Z,61.40
2022-12-23T10:50:46.236Z,61.90
2022-12-23T10:53:16.750Z,62.10
2022-12-23T10:55:43.701Z,62.10
2022-12-23T10:58:15.458Z,62.30
2022-12-23T11:00:43.545Z,62.80
2022-12-23T11:03:39.600Z,63.20
2022-12-23T11:06:07.693Z,63.70
2022-12-23T11:08:34.909Z,63.70
2022-12-23T11:11:01.525Z,63.50
2022-12-23T11:13:35.893Z,63.60
2022-12-23T11:16:15.793Z,64.30
2022-12-23T11:19:02.080Z,63.40
2022-12-23T11:21:29.548Z,63.60
2022-12-23T11:24:15.914Z,63.50
2022-12-23T11:26:43.121Z,63.40
2022-12-23T11:29:11.731Z,63.40
2022-12-23T11:31:38.477Z,63.70
2022-12-23T11:34:07.088Z,63.30
2022-12-23T11:36:34.144Z,63.10
2022-12-23T11:39:07.920Z,63.70
2022-12-23T11:41:37.682Z,64.30
2022-12-23T11:44:04.249Z,63.80
2022-12-23T11:46:33.920Z,64.10
2022-12-23T11:49:19.431Z,64.40
2022-12-23T11:52:00.749Z,63.90
2022-12-23T11:54:27.598Z,65.20
2022-12-23T11:56:54.838Z,64.40
2022-12-23T11:59:32.806Z,65.50
2022-12-23T12:02:04.503Z,64.50
2022-12-23T12:04:33.624Z,64.80
2022-12-23T12:07:00.778Z,65.10
2022-12-23T12:09:29.868Z,65.10
2022-12-23T12:12:07.158Z,65.10
2022-12-23T12:14:54.244Z,64.90
2022-12-23T12:17:23.368Z,64.80
2022-12-23T12:19:59.534Z,65.80
2022-12-23T12:22:32.170Z,66.10
2022-12-23T12:25:00.753Z,65.40
2022-12-23T12:27:35.577Z,64.80
2022-12-23T12:30:08.709Z,65.70
2022-12-23T12:32:53.901Z,65.50
2022-12-23T12:35:39.295Z,65.60
2022-12-23T12:38:14.976Z,65.70
2022-12-23T12:40:50.982Z,65.20
2022-12-23T12:43:24.188Z,64.90
2022-12-23T12:46:02.306Z,67.30
2022-12-23T12:48:36.278Z,65.80
2022-12-23T12:51:05.722Z,65.80
2022-12-23T12:53:33.442Z,65.20
2022-12-23T12:56:02.889Z,65.50
2022-12-23T12:58:29.515Z,65.80
2022-12-23T13:01:11.667Z,65.60
2022-12-23T13:03:47.367Z,66.00
2022-12-23T13:06:23.537Z,65.20
2022-12-23T13:09:08.778Z,65.00
2022-12-23T13:11:49.749Z,64.80
2022-12-23T13:14:34.254Z,65.80
2022-12-23T13:17:19.782Z,64.60
2022-12-23T13:19:46.421Z,64.90
2022-12-23T13:22:16.119Z,65.40
2022-12-23T13:25:01.318Z,65.10
2022-12-23T13:27:46.587Z,65.20
2022-12-23T13:30:17.744Z,64.80
2022-12-23T13:32:59.701Z,64.30
2022-12-23T13:35:37.022Z,64.20
2022-12-23T13:38:14.765Z,64.10
2022-12-23T13:40:47.596Z,64.50
2022-12-23T13:43:21.599Z,64.50
2022-12-23T13:45:49.768Z,64.10
2022-12-23T13:48:16.370Z,64.70
2022-12-23T13:50:45.959Z,64.00
2022-12-23T13:53:26.783Z,64.40
2022-12-23T13:56:02.697Z,64.20
2022-12-23T13:58:31.261Z,64.80
2022-12-23T14:01:10.008Z,65.10
2022-12-23T14:03:37.901Z,64.90
2022-12-23T14:06:19.619Z,64.70
2022-12-23T14:08:47.614Z,65.00
2022-12-23T14:11:16.801Z,64.70
2022-12-23T14:13:44.852Z,64.80
2022-12-23T14:16:21.624Z,64.40
2022-12-23T14:19:06.694Z,64.80
2022-12-23T14:21:48.481Z,64.80
2022-12-23T14:24:33.808Z,65.10
2022-12-23T14:27:19.309Z,64.50
2022-12-23T14:29:52.208Z,64.30
2022-12-23T14:32:25.300Z,65.00
2022-12-23T14:35:14.187Z,65.20
2022-12-23T14:37:40.868Z,65.20
2022-12-23T14:40:26.842Z,65.70
2022-12-23T14:43:13.411Z,65.50
2022-12-23T14:45:43.337Z,65.10
2022-12-23T14:48:28.785Z,64.50
2022-12-23T14:51:01.421Z,64.30
2022-12-23T14:53:28.723Z,64.70
2022-12-23T14:56:13.915Z,64.50
2022-12-23T14:59:00.727Z,64.40
2022-12-23T15:01:36.589Z,65.90
2022-12-23T15:04:20.599Z,66.20
2022-12-23T15:06:47.139Z,65.40
2022-12-23T15:09:19.351Z,64.70
2022-12-23T15:11:46.214Z,66.10
2022-12-23T15:14:16.836Z,64.70
2022-12-23T15:16:45.169Z,64.70
2022-12-23T15:19:20.110Z,65.10
2022-12-23T15:21:50.206Z,64.60
2022-12-23T15:24:22.410Z,64.20
2022-12-23T15:27:03.573Z,64.20
2022-12-23T15:29:36.703Z,64.10
2022-12-23T15:32:03.572Z,63.80
2022-12-23T15:34:31.900Z,63.90
2022-12-23T15:36:59.147Z,63.90
2022-12-23T15:39:34.059Z,64.40
2022-12-23T15:42:01.079Z,63.90
2022-12-23T15:44:38.596Z,63.50
2022-12-23T15:47:29.097Z,63.60
2022-12-23T15:49:59.478Z,63.60
2022-12-23T15:52:27.712Z,63.50
2022-12-23T15:54:55.944Z,63.50
2022-12-23T15:57:24.382Z,63.50
2022-12-23T15:59:51.199Z,64.00
2022-12-23T16:05:08.159Z,63.50
2022-12-23T16:07:38.170Z,63.30
2022-12-23T16:10:11.568Z,63.30
2022-12-23T16:12:38.695Z,63.40
2022-12-23T16:15:25.528Z,65.20
2022-12-23T16:17:52.091Z,63.80
2022-12-23T16:20:21.471Z,63.50
2022-12-23T16:22:50.818Z,64.10
2022-12-23T16:25:31.121Z,64.50
2022-12-23T16:27:58.998Z,64.30
2022-12-23T16:30:36.933Z,63.90
2022-12-23T16:33:21.981Z,63.70
2022-12-23T16:35:48.538Z,63.50
2022-12-23T16:38:15.296Z,63.50
2022-12-23T16:40:42.666Z,63.60
2022-12-23T16:43:09.302Z,63.80
2022-12-23T16:45:36.499Z,63.70
2022-12-23T16:48:08.192Z,63.20
2022-12-23T16:50:34.962Z,63.00
2022-12-23T16:53:01.498Z,63.10
2022-12-23T16:55:28.059Z,63.10
2022-12-23T16:57:54.661Z,63.40
2022-12-23T17:00:21.238Z,63.40
2022-12-23T17:02:47.989Z,63.50
2022-12-23T17:05:16.020Z,63.30
2022-12-23T17:07:45.416Z,62.70
2022-12-23T17:10:13.315Z,62.90
2022-12-23T17:12:40.222Z,62.80
2022-12-23T17:15:07.402Z,62.90
2022-12-23T17:17:34.238Z,63.50
2022-12-23T17:20:00.996Z,63.30
2022-12-23T17:22:27.922Z,63.10
2022-12-23T17:24:54.485Z,62.30
2022-12-23T17:27:21.104Z,62.10
2022-12-23T17:29:47.749Z,63.10
2022-12-23T17:32:16.556Z,62.80
2022-12-23T17:34:43.136Z,63.10
2022-12-23T17:37:14.077Z,62.90
2022-12-23T17:39:41.307Z,62.80
2022-12-23T17:42:13.816Z,62.50
2022-12-23T17:44:40.384Z,62.70
2022-12-23T17:47:33.389Z,63.00
2022-12-23T17:49:59.955Z,62.50
2022-12-23T17:52:26.521Z,64.20
2022-12-23T17:54:53.391Z,64.00
2022-12-23T17:57:26.813Z,63.50
2022-12-23T17:59:54.206Z,63.30
2022-12-23T18:02:30.571Z,63.10
2022-12-23T18:04:57.187Z,63.10
2022-12-23T18:07:23.858Z,62.80
2022-12-23T18:09:53.133Z,62.60
2022-12-23T18:12:33.346Z,64.10
2022-12-23T18:15:00.550Z,63.70
2022-12-23T18:17:27.616Z,63.80
2022-12-23T18:19:54.755Z,63.50
2022-12-23T18:22:22.496Z,64.90
2022-12-23T18:24:52.529Z,66.20
2022-12-23T18:27:23.925Z,64.70
2022-12-23T18:29:50.792Z,65.50
2022-12-23T18:32:21.994Z,64.80
2022-12-23T18:34:49.407Z,64.90
2022-12-23T18:37:16.384Z,64.80
2022-12-23T18:39:43.014Z,64.30
2022-12-23T18:42:11.763Z,64.10
2022-12-23T18:44:38.376Z,63.90
2022-12-23T18:47:04.998Z,63.20
2022-12-23T18:49:33.742Z,63.20
2022-12-23T18:52:04.411Z,63.30
2022-12-23T18:54:30.949Z,63.30
2022-12-23T18:56:59.563Z,63.10
2022-12-23T18:59:29.994Z,63.20
2022-12-23T19:01:57.139Z,63.80
2022-12-23T19:04:23.771Z,63.10
2022-12-23T19:06:50.344Z,63.10
2022-12-23T19:09:18.431Z,62.80
2022-12-23T19:11:46.546Z,62.80
2022-12-23T19:14:13.226Z,63.40
2022-12-23T19:16:40.008Z,63.10
2022-12-23T19:19:06.578Z,63.20
2022-12-23T19:21:33.533Z,63.10
2022-12-23T19:24:00.102Z,63.70
2022-12-23T19:26:26.696Z,63.70
2022-12-23T19:28:53.257Z,63.50
2022-12-23T19:31:19.881Z,63.10
2022-12-23T19:33:46.952Z,63.30
2022-12-23T19:36:22.533Z,63.10
2022-12-23T19:38:49.234Z,63.00
2022-12-23T19:41:15.943Z,63.10
2022-12-23T19:43:43.442Z,63.10
2022-12-23T19:46:10.578Z,63.40
2022-12-23T19:48:37.703Z,62.70
2022-12-23T19:51:05.867Z,62.50
2022-12-23T19:53:32.458Z,62.10
2022-12-23T19:56:03.955Z,61.70
2022-12-23T19:58:34.704Z,62.40
2022-12-23T20:01:15.524Z,62.90
2022-12-23T20:03:42.903Z,62.50
2022-12-23T20:06:14.077Z,62.90
2022-12-23T20:08:40.670Z,63.10
2022-12-23T20:11:17.986Z,63.20
2022-12-23T20:13:45.018Z,62.00
2022-12-23T20:16:12.120Z,62.70
2022-12-23T20:18:38.886Z,63.00
2022-12-23T20:21:07.044Z,63.00
2022-12-23T20:23:33.998Z,63.20
2022-12-23T20:26:00.544Z,63.20
2022-12-23T20:28:27.140Z,65.00
2022-12-23T20:31:01.041Z,63.50
2022-12-23T20:33:27.675Z,63.80
2022-12-23T20:35:54.227Z,64.00
2022-12-23T20:38:20.808Z,67.40
2022-12-23T20:40:47.350Z,65.50
2022-12-23T20:43:15.452Z,67.30
2022-12-23T20:45:42.923Z,65.10
2022-12-23T20:48:09.922Z,64.50
2022-12-23T20:50:40.108Z,64.70
2022-12-23T20:53:06.771Z,64.40
2022-12-23T20:55:33.465Z,64.40
2022-12-23T20:58:23.055Z,64.40
2022-12-23T21:00:49.846Z,64.50
2022-12-23T21:03:16.589Z,64.70
2022-12-23T21:05:43.287Z,64.40
2022-12-23T21:08:09.870Z,64.20
2022-12-23T21:10:36.527Z,64.10
2022-12-23T21:13:03.877Z,63.70
2022-12-23T21:15:31.227Z,63.60
2022-12-23T21:17:58.029Z,63.40
2022-12-23T21:20:24.793Z,63.70
2022-12-23T21:22:51.457Z,63.00
2022-12-23T21:25:18.058Z,63.60
2022-12-23T21:27:44.672Z,63.60
2022-12-23T21:30:11.455Z,63.50
2022-12-23T21:32:38.041Z,63.50
2022-12-23T21:35:04.806Z,63.50
2022-12-23T21:37:32.197Z,63.50
2022-12-23T21:39:58.747Z,63.60
2022-12-23T21:42:25.330Z,63.70
2022-12-23T21:44:51.902Z,63.40
2022-12-23T21:47:18.542Z,63.60
2022-12-23T21:49:45.242Z,63.50
2022-12-23T21:52:11.829Z,63.60
2022-12-23T21:54:38.388Z,63.40
2022-12-23T21:57:04.986Z,63.40
2022-12-23T21:59:35.160Z,63.40
2022-12-23T22:02:02.281Z,63.10
2022-12-23T22:04:28.957Z,63.00
2022-12-23T22:06:55.552Z,62.60
2022-12-23T22:09:22.156Z,62.50
2022-12-23T22:11:48.785Z,63.60
2022-12-23T22:14:16.757Z,63.00
2022-12-23T22:16:43.493Z,62.60
2022-12-23T22:19:10.943Z,62.40
2022-12-23T22:21:39.511Z,62.50
2022-12-23T22:24:06.341Z,62.20
2022-12-23T22:26:33.148Z,62.50
2022-12-23T22:29:01.147Z,62.70
2022-12-23T22:31:30.904Z,63.10
2022-12-23T22:33:57.624Z,62.60
2022-12-23T22:36:24.463Z,63.30
2022-12-23T22:38:55.716Z,62.30
2022-12-23T22:41:23.123Z,62.70
2022-12-23T22:43:49.907Z,63.20
2022-12-23T22:46:16.942Z,62.60
2022-12-23T22:48:43.856Z,63.50
2022-12-23T22:51:15.025Z,62.60
2022-12-23T22:53:41.745Z,63.30
2022-12-23T22:56:10.585Z,63.10
2022-12-23T22:58:37.287Z,63.20
2022-12-23T23:01:04.333Z,62.60
2022-12-23T23:03:31.195Z,62.60
2022-12-23T23:06:05.912Z,62.40
2022-12-23T23:08:33.439Z,62.60
2022-12-23T23:11:00.848Z,62.50
2022-12-23T23:13:28.492Z,62.30
2022-12-23T23:15:56.078Z,62.60
2022-12-23T23:18:23.537Z,62.90
2022-12-23T23:20:50.624Z,64.00
2022-12-23T23:23:17.323Z,64.50
2022-12-23T23:25:44.281Z,64.30
2022-12-23T23:28:11.795Z,64.80
2022-12-23T23:30:39.082Z,64.20
2022-12-23T23:33:06.624Z,64.40
2022-12-23T23:35:33.466Z,63.40
2022-12-23T23:38:00.095Z,65.60
2022-12-23T23:40:27.087Z,64.40
2022-12-23T23:42:54.103Z,64.00
2022-12-23T23:45:20.745Z,65.70
2022-12-23T23:47:47.348Z,66.90
2022-12-23T23:50:13.931Z,66.90
2022-12-23T23:52:40.505Z,67.40
2022-12-23T23:55:07.445Z,68.00
2022-12-23T23:57:33.990Z,66.90
